Time;durP1;ratioP1;P1;durP2;ratioP2;P2;SDS_P1;SDS_P2;PMS_P1;PMS_P2;Temp;Humidity;BMP_temperature;BMP_pressure;BME280_temperature;BME280_humidity;BME280_pressure;Samples;Min_cycle;Max_cycle;Signal;HPM_P1;HPM_P2
2021/05/21 00:00:31;;;;;;;3.40;2.63;;;;;;;7.53;93.33;100581.75;4908066;29;20106;-83
2021/05/21 00:02:58;;;;;;;3.70;2.60;;;;;;;7.46;93.64;100576.56;4904631;29;20110;-82
2021/05/21 00:05:25;;;;;;;2.63;2.30;;;;;;;7.51;93.73;100577.41;4937345;29;20039;-79
2021/05/21 00:07:51;;;;;;;3.60;2.20;;;;;;;7.50;94.32;100570.41;4933156;29;20481;-82
2021/05/21 00:10:18;;;;;;;2.80;2.53;;;;;;;7.47;94.00;100567.78;4920879;29;20521;-83
2021/05/21 00:12:45;;;;;;;2.83;2.53;;;;;;;7.47;94.71;100565.16;4936811;29;20055;-82
2021/05/21 00:15:12;;;;;;;3.23;2.77;;;;;;;7.52;94.74;100561.59;4921558;29;20040;-82
2021/05/21 00:17:39;;;;;;;4.17;2.77;;;;;;;7.51;94.20;100556.38;4903922;29;20039;-83
2021/05/21 00:20:09;;;;;;;3.40;2.60;;;;;;;7.52;94.14;100561.59;4941213;29;20508;-82
2021/05/21 00:22:36;;;;;;;3.40;2.70;;;;;;;7.60;93.15;100556.28;4920345;29;20071;-83
2021/05/21 00:25:04;;;;;;;3.00;2.70;;;;;;;7.54;94.35;100551.06;4920058;29;20134;-82
2021/05/21 00:27:30;;;;;;;4.13;3.30;;;;;;;7.56;94.11;100546.66;4911692;29;20592;-81
2021/05/21 00:29:57;;;;;;;4.57;2.73;;;;;;;7.59;94.18;100537.00;4933214;29;20039;-83
2021/05/21 00:32:24;;;;;;;4.23;2.80;;;;;;;7.64;94.24;100523.78;4916042;29;20050;-80
2021/05/21 00:34:51;;;;;;;3.53;2.80;;;;;;;7.68;94.52;100525.53;4935163;29;20058;-83
2021/05/21 00:37:18;;;;;;;3.17;2.43;;;;;;;7.67;94.70;100522.91;4920477;29;20132;-84
2021/05/21 00:39:44;;;;;;;3.20;2.40;;;;;;;7.69;95.30;100516.75;4933897;29;20107;-82
2021/05/21 00:42:11;;;;;;;3.13;2.70;;;;;;;7.76;94.79;100510.53;4937748;29;20624;-83
2021/05/21 00:44:38;;;;;;;3.50;2.43;;;;;;;7.78;94.32;100505.25;4935951;29;20047;-83
2021/05/21 00:47:05;;;;;;;3.17;2.57;;;;;;;7.81;93.25;100505.19;4921469;28;20405;-82
2021/05/21 00:49:31;;;;;;;4.17;2.87;;;;;;;7.82;93.40;100505.22;4909277;29;20406;-84
2021/05/21 00:52:01;;;;;;;5.27;3.00;;;;;;;7.86;92.98;100496.38;4904806;29;20043;-83
2021/05/21 00:54:28;;;;;;;3.43;3.00;;;;;;;7.87;92.73;100494.63;4908788;29;20488;-83
2021/05/21 00:56:55;;;;;;;4.23;3.20;;;;;;;7.94;91.96;100487.53;4920369;29;20047;-81
2021/05/21 00:59:21;;;;;;;4.73;2.90;;;;;;;7.99;92.62;100488.31;4936341;29;20089;-82
2021/05/21 01:01:50;;;;;;;3.93;2.60;;;;;;;7.97;92.61;100496.25;4920692;29;20066;-82
2021/05/21 01:04:16;;;;;;;3.50;2.83;;;;;;;7.97;93.58;100496.25;4922799;29;20118;-82
2021/05/21 01:06:43;;;;;;;3.27;2.90;;;;;;;8.04;93.15;100483.88;4934792;28;20055;-80
2021/05/21 01:09:10;;;;;;;3.90;3.43;;;;;;;8.07;92.62;100478.56;4922026;28;20046;-82
2021/05/21 01:11:37;;;;;;;5.17;3.13;;;;;;;8.12;93.16;100471.50;4935863;29;20138;-82
2021/05/21 01:14:04;;;;;;;5.47;2.93;;;;;;;8.18;91.81;100474.06;4935084;29;20527;-82
2021/05/21 01:16:30;;;;;;;4.37;2.90;;;;;;;8.18;91.05;100467.03;4914902;29;20052;-83
2021/05/21 01:19:03;;;;;;;4.57;3.03;;;;;;;8.24;90.98;100470.44;4919335;29;20047;-83
2021/05/21 01:21:31;;;;;;;4.17;2.73;;;;;;;8.30;90.90;100459.84;4920559;29;20461;-81
2021/05/21 01:23:58;;;;;;;4.03;3.10;;;;;;;8.32;91.02;100456.28;4935541;28;20063;-82
2021/05/21 01:26:25;;;;;;;4.00;3.20;;;;;;;8.39;90.04;100457.09;4936147;29;20054;-82
2021/05/21 01:28:52;;;;;;;3.97;3.00;;;;;;;8.42;89.25;100465.84;4933130;29;20047;-82
2021/05/21 01:31:19;;;;;;;4.73;3.30;;;;;;;8.43;89.67;100450.91;4932968;29;20044;-82
2021/05/21 01:33:47;;;;;;;5.43;3.80;;;;;;;8.45;89.15;100446.50;4928999;29;20055;-80
2021/05/21 01:36:13;;;;;;;6.50;3.43;;;;;;;8.53;89.54;100435.84;4920085;29;20772;-81
2021/05/21 01:38:59;;;;;;;3.57;3.27;;;;;;;8.53;90.05;100431.44;4927469;29;20152;-81
2021/05/21 01:41:28;;;;;;;3.83;3.37;;;;;;;8.55;90.53;100432.28;4916955;29;20058;-81
2021/05/21 01:43:56;;;;;;;3.80;3.37;;;;;;;8.56;91.23;100425.25;4920640;29;20043;-80
2021/05/21 01:46:23;;;;;;;4.07;3.53;;;;;;;8.63;90.65;100417.22;4904510;29;20047;-81
2021/05/21 01:48:49;;;;;;;5.77;3.40;;;;;;;8.58;91.06;100413.81;4917315;29;20039;-82
2021/05/21 01:51:16;;;;;;;5.43;3.50;;;;;;;8.59;91.96;100412.06;4917546;29;20047;-83
2021/05/21 01:53:43;;;;;;;4.32;3.65;;;;;;;8.60;91.73;100413.78;4934852;29;20051;-82
2021/05/21 01:56:10;;;;;;;6.50;3.50;;;;;;;8.64;91.50;100403.16;4931401;29;20043;-83
2021/05/21 01:58:37;;;;;;;5.60;2.87;;;;;;;8.58;91.33;100390.13;4902405;29;20051;-82
2021/05/21 02:01:03;;;;;;;3.20;2.73;;;;;;;8.53;91.35;100388.47;4919505;29;20039;-82
2021/05/21 02:03:31;;;;;;;8.20;3.23;;;;;;;8.40;92.77;100387.78;4914854;29;20043;-83
2021/05/21 02:05:58;;;;;;;3.90;3.07;;;;;;;8.38;93.26;100384.28;4919283;29;20039;-83
2021/05/21 02:08:26;;;;;;;5.93;2.97;;;;;;;8.45;92.33;100375.41;4917840;29;20047;-82
2021/05/21 02:10:53;;;;;;;3.35;2.50;;;;;;;8.45;91.90;100373.66;4934704;29;20043;-82
2021/05/21 02:13:22;;;;;;;3.83;2.83;;;;;;;8.44;91.70;100369.28;4930933;29;20040;-83
2021/05/21 02:15:49;;;;;;;4.10;3.30;;;;;;;8.43;90.92;100361.41;4946613;28;20065;-82
2021/05/21 02:18:15;;;;;;;4.80;2.87;;;;;;;8.33;92.88;100360.66;4918758;29;20047;-82
2021/05/21 02:20:43;;;;;;;3.10;2.60;;;;;;;8.33;93.17;100359.81;4916763;29;20046;-82
2021/05/21 02:23:10;;;;;;;3.73;3.20;;;;;;;8.28;93.21;100353.72;4919110;29;20047;-81
2021/05/21 02:25:37;;;;;;;4.10;3.03;;;;;;;8.22;93.95;100346.78;4916280;29;20147;-82
2021/05/21 02:28:04;;;;;;;3.73;2.83;;;;;;;8.19;94.16;100346.84;4924894;29;20043;-82
2021/05/21 02:30:30;;;;;;;3.37;3.07;;;;;;;8.21;93.98;100331.91;4950272;28;20453;-82
2021/05/21 02:32:57;;;;;;;4.33;2.60;;;;;;;8.15;94.52;100335.47;4942692;29;20074;-82
2021/05/21 02:35:24;;;;;;;5.03;3.20;;;;;;;8.15;94.95;100331.97;4918460;29;20048;-82
2021/05/21 02:37:51;;;;;;;3.57;3.03;;;;;;;8.17;95.08;100324.97;4921325;29;20078;-82
2021/05/21 02:40:19;;;;;;;3.60;3.00;;;;;;;8.14;94.97;100328.47;4921924;29;20035;-82
2021/05/21 02:42:46;;;;;;;4.40;3.00;;;;;;;8.10;95.69;100321.56;4906779;29;20074;-83
2021/05/21 02:45:13;;;;;;;3.20;2.90;;;;;;;8.17;95.18;100314.44;4941348;29;20047;-82
2021/05/21 02:47:40;;;;;;;4.10;2.93;;;;;;;8.21;93.87;100317.88;4938168;29;20563;-82
2021/05/21 02:50:07;;;;;;;4.67;3.23;;;;;;;8.22;94.55;100315.22;4921412;29;20062;-82
2021/05/21 02:52:34;;;;;;;3.53;3.13;;;;;;;8.18;94.52;100313.53;4914554;29;20047;-82
2021/05/21 02:55:02;;;;;;;4.43;3.20;;;;;;;8.21;94.08;100302.94;4935913;28;20488;-83
2021/05/21 02:57:28;;;;;;;3.80;2.80;;;;;;;8.21;94.38;100305.56;4922076;29;20043;-83
2021/05/21 02:59:55;;;;;;;4.67;3.40;;;;;;;8.31;93.66;100296.63;4934509;29;20044;-82
2021/05/21 03:02:23;;;;;;;3.43;3.13;;;;;;;8.21;94.19;100292.41;4920328;29;20039;-82
2021/05/21 03:04:53;;;;;;;5.47;4.00;;;;;;;8.30;93.92;100301.94;4951098;23;21395;-83
2021/05/21 03:07:20;;;;;;;3.30;2.80;;;;;;;8.20;95.70;100303.84;4941292;29;20135;-83
2021/05/21 03:09:47;;;;;;;3.90;3.47;;;;;;;8.13;96.42;100297.81;4906410;29;20062;-83
2021/05/21 03:12:14;;;;;;;4.53;3.33;;;;;;;8.29;96.07;100298.44;4935733;29;20498;-82
2021/05/21 03:14:40;;;;;;;5.07;3.17;;;;;;;8.23;96.54;100282.72;4942324;29;20092;-83
2021/05/21 03:17:07;;;;;;;5.33;3.70;;;;;;;8.40;95.93;100287.75;4899823;29;20094;-83
2021/05/21 03:19:34;;;;;;;5.40;3.70;;;;;;;8.36;96.00;100286.06;4916686;29;20036;-83
2021/05/21 03:22:00;;;;;;;5.23;3.43;;;;;;;8.40;96.10;100283.34;4916138;29;20114;-83
2021/05/21 03:24:27;;;;;;;4.07;3.43;;;;;;;8.46;96.85;100277.97;4921480;29;20040;-83
2021/05/21 03:26:54;;;;;;;6.63;4.13;;;;;;;8.56;96.16;100281.31;4933035;29;20544;-84
2021/05/21 03:29:21;;;;;;;4.60;3.60;;;;;;;8.54;95.82;100275.22;4920025;29;20050;-83
2021/05/21 03:31:47;;;;;;;3.53;3.07;;;;;;;8.58;96.66;100276.91;4923353;29;20106;-83
2021/05/21 03:34:14;;;;;;;5.87;4.50;;;;;;;8.55;97.59;100276.06;4931183;29;20054;-84
2021/05/21 03:36:41;;;;;;;6.53;5.20;;;;;;;8.57;97.76;100275.13;4902329;29;20055;-84
2021/05/21 03:39:08;;;;;;;6.33;4.57;;;;;;;8.55;98.06;100266.41;4908576;29;20032;-83
2021/05/21 03:41:35;;;;;;;5.20;4.37;;;;;;;8.58;98.08;100271.63;4931090;29;20071;-84
2021/05/21 03:44:02;;;;;;;6.03;3.50;;;;;;;8.62;96.95;100273.31;4932169;29;20039;-83
2021/05/21 03:46:29;;;;;;;3.85;3.45;;;;;;;8.62;97.06;100268.03;4891917;29;20066;-84
2021/05/21 03:48:56;;;;;;;4.17;3.60;;;;;;;8.61;97.33;100265.44;4918459;29;20060;-84
2021/05/21 03:51:23;;;;;;;3.95;3.25;;;;;;;8.60;96.71;100264.56;4917588;29;20043;-83
2021/05/21 03:53:52;;;;;;;6.00;3.80;;;;;;;8.62;96.32;100257.50;4888220;29;20056;-84
2021/05/21 03:56:19;;;;;;;4.50;3.55;;;;;;;8.66;96.20;100253.94;4933009;29;20050;-83
2021/05/21 03:58:46;;;;;;;4.13;3.40;;;;;;;8.71;96.42;100251.19;4889562;29;20063;-84
2021/05/21 04:01:13;;;;;;;5.50;3.77;;;;;;;8.77;95.82;100251.09;4916710;29;20118;-84
2021/05/21 04:03:40;;;;;;;3.58;3.13;;;;;;;8.89;96.38;100239.41;4927611;29;20561;-83
2021/05/21 04:06:06;;;;;;;4.25;3.30;;;;;;;8.99;96.19;100238.31;4922002;29;20135;-83
2021/05/21 04:08:35;;;;;;;4.20;3.50;;;;;;;9.11;95.85;100242.50;4902058;29;20040;-84
2021/05/21 04:11:01;;;;;;;3.75;3.17;;;;;;;9.15;94.96;100242.38;4915374;29;20448;-84
2021/05/21 04:13:28;;;;;;;3.92;3.30;;;;;;;9.22;94.69;100241.34;4943635;29;20048;-84
2021/05/21 04:15:55;;;;;;;4.55;3.72;;;;;;;9.28;94.63;100243.84;4929051;29;20040;-83
2021/05/21 04:18:21;;;;;;;5.22;3.85;;;;;;;9.47;93.77;100243.44;4929511;29;20057;-83
2021/05/21 04:20:48;;;;;;;4.30;3.90;;;;;;;9.51;93.62;100235.44;4947921;29;20043;-84
2021/05/21 04:23:15;;;;;;;5.72;3.75;;;;;;;9.62;93.84;100226.41;4932040;29;20044;-83
2021/05/21 04:25:41;;;;;;;4.25;3.35;;;;;;;9.68;93.03;100236.81;4915027;29;20052;-84
2021/05/21 04:28:10;;;;;;;4.20;3.25;;;;;;;9.72;93.39;100234.06;4925858;29;20047;-84
2021/05/21 04:30:37;;;;;;;4.70;3.55;;;;;;;9.90;92.50;100224.84;4927054;29;20131;-84
2021/05/21 04:33:04;;;;;;;5.60;4.25;;;;;;;10.00;92.04;100215.78;4902850;29;20039;-83
2021/05/21 04:35:31;;;;;;;6.57;3.95;;;;;;;10.15;91.35;100211.88;4901107;29;20098;-83
2021/05/21 04:37:58;;;;;;;5.47;3.90;;;;;;;10.40;90.31;100206.84;4932777;29;20086;-84
2021/05/21 04:40:25;;;;;;;5.10;3.88;;;;;;;10.45;90.08;100201.47;4915394;29;20445;-84
2021/05/21 04:42:51;;;;;;;4.93;3.97;;;;;;;10.55;89.97;100195.00;4915821;29;20048;-83
2021/05/21 04:45:18;;;;;;;5.50;3.83;;;;;;;10.67;88.97;100190.22;4917174;29;20048;-83
2021/05/21 04:47:45;;;;;;;5.03;3.78;;;;;;;10.76;88.43;100194.41;4904627;29;20047;-84
2021/05/21 04:50:12;;;;;;;6.10;3.60;;;;;;;10.90;86.45;100183.44;4882643;29;20070;-83
2021/05/21 04:52:38;;;;;;;5.13;3.50;;;;;;;11.00;85.54;100184.88;4899846;29;20055;-84
2021/05/21 04:55:07;;;;;;;4.30;3.28;;;;;;;10.99;85.09;100191.09;4917868;29;20052;-84
2021/05/21 04:57:33;;;;;;;5.15;3.60;;;;;;;11.09;84.24;100181.09;4901302;29;20036;-84
2021/05/21 05:00:00;;;;;;;3.92;3.42;;;;;;;11.18;83.94;100184.38;4931783;29;20120;-84
2021/05/21 05:02:27;;;;;;;5.00;3.15;;;;;;;11.11;84.01;100174.00;4913984;29;20103;-85
2021/05/21 05:04:54;;;;;;;4.63;3.53;;;;;;;11.21;83.41;100171.03;4874372;29;521715;-83
2021/05/21 05:07:21;;;;;;;4.30;3.42;;;;;;;11.29;84.08;100168.16;4946720;28;20040;-84
2021/05/21 05:09:47;;;;;;;3.92;3.08;;;;;;;11.34;83.37;100158.28;4928611;29;20040;-84
2021/05/21 05:12:14;;;;;;;4.63;3.47;;;;;;;11.39;82.75;100153.72;4945609;29;20047;-84
2021/05/21 05:14:41;;;;;;;5.53;3.50;;;;;;;11.38;82.16;100144.06;4914346;29;20048;-84
2021/05/21 05:17:07;;;;;;;4.30;3.25;;;;;;;11.38;80.69;100146.69;4888274;29;20103;-84
2021/05/21 05:19:34;;;;;;;4.63;3.67;;;;;;;11.42;81.39;100148.31;4942638;29;20414;-83
2021/05/21 05:22:01;;;;;;;4.78;3.40;;;;;;;11.44;81.85;100140.38;4947213;29;20055;-83
2021/05/21 05:24:33;;;;;;;6.65;3.35;;;;;;;11.53;81.58;100140.94;4921601;29;20102;-83
2021/05/21 05:26:59;;;;;;;4.60;3.83;;;;;;;11.59;80.94;100129.25;4890166;29;20051;-84
2021/05/21 05:29:26;;;;;;;4.65;3.28;;;;;;;11.70;80.55;100135.06;4901138;29;20074;-84
2021/05/21 05:31:53;;;;;;;3.55;3.00;;;;;;;11.93;81.13;100122.84;4903903;29;20048;-83
2021/05/21 05:34:20;;;;;;;5.38;3.80;;;;;;;12.16;80.22;100119.41;4929084;29;20040;-83
2021/05/21 05:36:47;;;;;;;4.00;3.10;;;;;;;12.24;77.38;100118.22;4932121;29;20069;-85
2021/05/21 05:39:13;;;;;;;4.53;3.42;;;;;;;12.18;79.01;100114.91;4902083;29;20111;-85
2021/05/21 05:41:40;;;;;;;3.92;3.08;;;;;;;12.05;78.97;100102.13;4920691;29;20071;-85
2021/05/21 05:44:07;;;;;;;4.38;3.40;;;;;;;12.05;78.51;100102.13;4920989;29;20051;-85
2021/05/21 05:46:33;;;;;;;3.60;3.00;;;;;;;11.99;79.13;100099.69;4925951;29;20063;-84
2021/05/21 05:49:00;;;;;;;3.38;2.90;;;;;;;12.25;78.81;100093.47;4915262;29;20047;-85
2021/05/21 05:51:27;;;;;;;4.10;3.28;;;;;;;12.55;75.62;100082.66;4915555;29;20046;-85
2021/05/21 05:53:53;;;;;;;4.20;2.75;;;;;;;12.80;75.50;100079.94;4901065;29;20071;-84
2021/05/21 05:56:20;;;;;;;3.95;2.83;;;;;;;13.69;72.98;100079.84;4906972;29;20052;-83
2021/05/21 05:58:47;;;;;;;2.67;2.47;;;;;;;15.60;66.68;100076.31;4895902;29;20143;-84
2021/05/21 06:01:13;;;;;;;3.58;2.45;;;;;;;17.06;57.85;100070.31;4909480;29;20043;-82
2021/05/21 06:03:40;;;;;;;3.05;2.55;;;;;;;18.01;55.00;100057.66;4916833;29;20048;-84
2021/05/21 06:06:07;;;;;;;4.28;2.40;;;;;;;18.53;52.44;100052.59;4932065;29;20044;-83
2021/05/21 06:08:54;;;;;;;4.38;2.50;;;;;;;18.78;53.97;100073.34;4936637;29;20486;-84
2021/05/21 06:11:20;;;;;;;2.85;2.20;;;;;;;18.20;53.76;100062.72;4927353;29;20046;-83
2021/05/21 06:13:47;;;;;;;3.03;2.40;;;;;;;18.17;54.54;100066.44;4935097;29;20047;-85
2021/05/21 06:16:15;;;;;;;2.90;1.90;;;;;;;18.11;56.30;100063.28;4944716;29;20051;-84
2021/05/21 06:18:42;;;;;;;3.47;2.10;;;;;;;17.93;56.11;100071.47;4929239;29;20052;-84
2021/05/21 06:21:08;;;;;;;3.25;2.30;;;;;;;18.04;57.28;100061.94;4945146;29;20039;-85
2021/05/21 06:23:37;;;;;;;2.45;2.25;;;;;;;17.96;55.35;100046.34;4888825;29;20115;-82
2021/05/21 06:28:43;;;;;;;2.15;1.88;;;;;;;18.31;55.79;100038.84;4907395;29;20043;-83
2021/05/21 06:31:10;;;;;;;3.10;1.98;;;;;;;18.38;53.13;100037.50;4917262;29;20580;-84
2021/05/21 06:33:37;;;;;;;2.50;1.80;;;;;;;18.37;53.78;100024.22;4933160;29;20044;-83
2021/05/21 06:36:04;;;;;;;1.98;1.75;;;;;;;18.46;54.05;100021.84;4901342;29;20107;-83
2021/05/21 06:38:31;;;;;;;2.13;1.90;;;;;;;18.44;53.48;100014.88;4899848;29;20047;-84
2021/05/21 06:40:58;;;;;;;2.45;2.00;;;;;;;18.36;53.38;100019.84;4903428;29;20111;-83
2021/05/21 06:43:27;;;;;;;3.03;2.30;;;;;;;18.32;52.80;100002.25;4887079;29;20048;-83
2021/05/21 06:45:53;;;;;;;3.65;1.80;;;;;;;18.25;53.32;100002.66;4924940;29;20044;-83
2021/05/21 06:48:21;;;;;;;2.85;2.20;;;;;;;18.35;53.03;100007.44;4933663;29;20056;-83
2021/05/21 06:50:48;;;;;;;1.77;1.67;;;;;;;18.40;54.25;99995.47;4933606;29;20035;-83
2021/05/21 06:53:15;;;;;;;2.55;2.15;;;;;;;18.43;53.09;99995.28;4918438;29;20098;-83
2021/05/21 06:55:43;;;;;;;1.90;1.70;;;;;;;18.29;54.35;99988.13;4904297;29;20051;-83
2021/05/21 06:58:09;;;;;;;2.38;2.00;;;;;;;18.42;53.82;99987.38;4900242;29;20077;-83
2021/05/21 07:00:41;;;;;;;1.83;1.70;;;;;;;18.60;54.04;99990.69;4947458;28;20051;-84
2021/05/21 07:03:08;;;;;;;2.38;1.80;;;;;;;18.98;54.75;99985.53;4935026;29;20044;-84
2021/05/21 07:05:35;;;;;;;1.98;1.52;;;;;;;19.02;51.47;99976.34;4906113;29;20044;-84
2021/05/21 07:08:03;;;;;;;2.28;1.95;;;;;;;19.05;53.24;99968.97;4935261;29;20461;-84
2021/05/21 07:10:29;;;;;;;2.45;1.90;;;;;;;19.12;51.90;99974.78;4927476;29;20432;-84
2021/05/21 07:13:05;;;;;;;3.40;2.13;;;;;;;18.96;49.68;99964.22;4936173;29;20043;-83
2021/05/21 07:15:32;;;;;;;4.38;1.83;;;;;;;19.08;52.13;99959.84;4937156;29;20056;-84
2021/05/21 07:17:59;;;;;;;2.30;1.60;;;;;;;19.14;51.63;99954.09;4918341;29;20043;-85
2021/05/21 07:20:25;;;;;;;2.05;1.70;;;;;;;19.05;50.45;99952.91;4949486;28;21231;-84
2021/05/21 07:22:52;;;;;;;2.38;1.80;;;;;;;19.02;47.60;99949.59;4917997;29;20039;-84
2021/05/21 07:25:18;;;;;;;1.80;1.55;;;;;;;19.22;49.68;99933.03;4911724;29;20048;-82
2021/05/21 07:27:45;;;;;;;5.53;2.08;;;;;;;19.01;48.83;99931.81;4919208;29;20058;-82
2021/05/21 07:30:13;;;;;;;27.63;4.90;;;;;;;19.23;51.06;99934.72;4919200;29;20055;-82
2021/05/21 07:32:39;;;;;;;2.53;1.80;;;;;;;19.38;49.53;99927.47;4902550;29;20050;-81
2021/05/21 07:35:07;;;;;;;2.50;1.50;;;;;;;19.57;50.19;99927.09;4933230;29;20048;-81
2021/05/21 07:37:35;;;;;;;3.10;1.98;;;;;;;19.77;50.92;99925.72;4905291;29;20048;-83
2021/05/21 07:40:06;;;;;;;1.52;1.40;;;;;;;19.55;47.75;99920.97;4949726;29;20387;-82
2021/05/21 07:42:34;;;;;;;3.70;1.95;;;;;;;19.53;46.89;99915.72;4933857;29;20056;-81
2021/05/21 07:45:00;;;;;;;1.50;1.40;;;;;;;19.58;46.81;99918.94;4918566;29;20043;-80
2021/05/21 07:47:27;;;;;;;2.55;1.60;;;;;;;19.34;46.90;99909.91;4935436;29;20044;-84
2021/05/21 07:49:55;;;;;;;1.90;1.35;;;;;;;19.42;46.98;99904.88;4934441;29;21289;-83
2021/05/21 07:52:21;;;;;;;3.22;1.40;;;;;;;19.19;47.40;99908.28;4917503;29;20032;-81
2021/05/21 07:54:48;;;;;;;2.15;1.50;;;;;;;19.00;47.78;99898.81;4921224;29;20138;-82
2021/05/21 07:57:15;;;;;;;3.78;1.80;;;;;;;18.95;48.04;99900.94;4932997;29;20042;-82
2021/05/21 07:59:41;;;;;;;3.03;1.38;;;;;;;18.88;47.11;99894.28;4903777;29;20114;-83
2021/05/21 08:02:08;;;;;;;2.78;1.60;;;;;;;19.03;47.13;99884.38;4918825;29;20048;-83
2021/05/21 08:04:35;;;;;;;1.88;1.58;;;;;;;19.11;49.06;99877.53;4943205;29;20083;-81
2021/05/21 08:07:01;;;;;;;2.97;1.80;;;;;;;19.30;48.59;99862.88;4936805;29;20852;-81
2021/05/21 08:09:30;;;;;;;1.52;1.42;;;;;;;19.59;49.96;99866.22;4935719;29;20032;-81
2021/05/21 08:11:56;;;;;;;4.03;1.80;;;;;;;19.88;47.63;99859.66;4894912;29;20520;-82
2021/05/21 08:14:23;;;;;;;3.35;1.50;;;;;;;19.79;48.50;99859.47;4934172;29;20051;-81
2021/05/21 08:16:50;;;;;;;2.35;1.30;;;;;;;19.60;46.71;99860.78;4886068;29;20043;-83
2021/05/21 08:19:40;;;;;;;1.70;1.25;;;;;;;19.84;45.85;99851.94;4916731;29;20071;-81
2021/05/21 08:22:08;;;;;;;2.08;1.13;;;;;;;20.16;47.48;99850.47;4902713;29;20047;-81
2021/05/21 08:24:34;;;;;;;3.00;1.48;;;;;;;20.17;44.29;99836.09;4931550;29;20539;-81
2021/05/21 08:27:03;;;;;;;8.57;6.03;;;;;;;19.91;44.05;99831.75;4952209;28;20135;-81
2021/05/21 08:29:30;;;;;;;6.15;3.85;;;;;;;19.55;45.24;99830.72;4896104;29;20044;-82
2021/05/21 08:32:01;;;;;;;1.63;1.17;;;;;;;19.44;45.22;99838.66;4901569;29;20047;-84
2021/05/21 08:34:29;;;;;;;2.50;1.42;;;;;;;19.37;47.05;99834.69;4941496;29;20039;-83
2021/05/21 08:36:55;;;;;;;1.90;1.50;;;;;;;19.31;45.67;99829.75;4928846;29;20040;-81
2021/05/21 08:39:22;;;;;;;2.75;1.52;;;;;;;19.23;47.48;99832.13;4899927;29;20043;-81
2021/05/21 08:41:52;;;;;;;2.47;1.50;;;;;;;19.09;46.15;99827.72;4900779;29;20039;-83
2021/05/21 08:44:20;;;;;;;1.65;1.30;;;;;;;19.21;49.31;99820.66;4926151;29;20059;-83
2021/05/21 08:46:47;;;;;;;2.78;1.60;;;;;;;19.25;48.35;99824.81;4926179;29;20508;-83
2021/05/21 08:49:17;;;;;;;1.95;1.40;;;;;;;19.63;48.80;99817.66;4937101;29;20123;-82
2021/05/21 08:51:46;;;;;;;1.70;1.33;;;;;;;19.98;45.64;99805.38;4916777;29;20133;-82
2021/05/21 08:54:36;;;;;;;1.90;1.20;;;;;;;20.44;47.58;99792.16;4917042;29;20497;-82
2021/05/21 08:57:11;;;;;;;1.58;1.20;;;;;;;20.30;44.88;99798.50;4945707;29;20461;-83
2021/05/21 08:59:38;;;;;;;2.50;2.00;;;;;;;20.11;46.96;99790.97;4909155;29;20135;-82
2021/05/21 09:02:10;;;;;;;7.18;2.22;;;;;;;19.96;46.96;99776.84;4917806;29;20051;-81
2021/05/21 09:04:57;;;;;;;2.25;1.50;;;;;;;19.51;44.89;99783.69;4915025;29;20098;-80
2021/05/21 09:07:26;;;;;;;2.95;1.38;;;;;;;19.28;45.34;99773.75;4927681;29;20052;-80
2021/05/21 09:09:56;;;;;;;4.90;2.10;;;;;;;19.36;46.66;99780.28;4885546;29;20055;-81
2021/05/21 09:12:23;;;;;;;2.22;1.70;;;;;;;19.45;46.31;99770.72;4905639;29;20036;-81
2021/05/21 09:15:10;;;;;;;2.35;1.60;;;;;;;19.48;46.74;99780.34;4895953;29;20047;-81
2021/05/21 09:17:49;;;;;;;8.50;7.82;;;;;;;19.47;47.03;99775.97;4933893;29;20563;-82
2021/05/21 09:20:26;;;;;;;1.83;1.33;;;;;;;19.64;48.88;99781.00;4922026;29;20047;-79
2021/05/21 09:23:04;;;;;;;1.55;1.20;;;;;;;19.79;48.79;99777.22;4926508;29;20299;-80
2021/05/21 09:25:43;;;;;;;23.45;3.05;;;;;;;20.06;44.86;99763.63;4919571;29;20561;-80
2021/05/21 09:28:32;;;;;;;3.85;1.40;;;;;;;19.84;44.62;99759.00;4898647;29;20043;-82
2021/05/21 09:31:15;;;;;;;2.75;1.38;;;;;;;19.76;45.84;99753.34;4914497;29;20055;-82
2021/05/21 09:33:44;;;;;;;3.22;1.60;;;;;;;20.11;43.96;99766.84;4937608;29;20071;-82
2021/05/21 09:36:12;;;;;;;2.60;1.30;;;;;;;20.45;43.86;99761.66;4910655;29;20043;-83
2021/05/21 09:38:56;;;;;;;5.88;1.67;;;;;;;20.40;43.96;99753.06;4895921;29;20055;-80
2021/05/21 09:41:45;;;;;;;7.68;1.90;;;;;;;20.42;46.33;99748.41;4894233;29;20059;-83
2021/05/21 09:44:12;;;;;;;1.33;1.20;;;;;;;20.49;43.39;99747.03;4939880;29;20060;-81
2021/05/21 09:46:40;;;;;;;2.33;1.50;;;;;;;20.62;44.50;99737.06;4909924;29;20052;-81
2021/05/21 09:49:38;;;;;;;2.42;1.45;;;;;;;21.07;43.89;99750.56;4928656;29;20050;-83
2021/05/21 09:52:07;;;;;;;3.85;1.48;;;;;;;21.29;43.67;99745.25;4920140;29;20058;-82
2021/05/21 09:54:54;;;;;;;3.40;1.75;;;;;;;21.15;42.73;99725.81;4906665;29;20068;-82
2021/05/21 09:57:34;;;;;;;2.70;1.15;;;;;;;20.88;42.09;99720.78;4909367;29;20048;-80
2021/05/21 10:00:08;;;;;;;13.23;2.55;;;;;;;20.50;44.85;99716.53;4910755;29;20494;-82
2021/05/21 10:02:35;;;;;;;1.92;1.17;;;;;;;20.42;44.86;99713.53;4908716;29;20720;-83
2021/05/21 10:05:05;;;;;;;2.85;1.30;;;;;;;20.31;43.72;99706.31;4899093;29;20050;-82
2021/05/21 10:07:31;;;;;;;3.38;1.45;;;;;;;20.23;44.97;99701.53;4895630;29;20050;-84
2021/05/21 10:09:58;;;;;;;2.70;1.50;;;;;;;20.20;44.96;99701.78;4895295;29;20425;-82
2021/05/21 10:12:25;;;;;;;1.75;1.35;;;;;;;20.06;43.58;99701.94;4901632;29;20051;-83
2021/05/21 10:14:53;;;;;;;2.72;1.30;;;;;;;20.32;44.90;99691.06;4899928;29;20051;-82
2021/05/21 10:17:24;;;;;;;2.40;1.38;;;;;;;20.87;43.57;99676.97;4906915;29;20119;-84
2021/05/21 10:19:56;;;;;;;1.98;1.40;;;;;;;20.93;41.65;99692.56;4915056;29;20044;-83
2021/05/21 10:22:27;;;;;;;3.78;1.45;;;;;;;20.36;41.86;99679.16;4898038;29;20085;-81
2021/05/21 10:24:59;;;;;;;2.25;1.23;;;;;;;20.09;42.79;99672.22;4926992;29;20127;-81
2021/05/21 10:27:30;;;;;;;3.05;1.27;;;;;;;19.63;42.20;99688.19;4943564;29;20048;-83
2021/05/21 10:30:01;;;;;;;4.85;1.60;;;;;;;19.65;43.73;99663.00;4912255;29;20052;-81
2021/05/21 10:32:30;;;;;;;3.47;1.40;;;;;;;19.94;42.08;99665.34;4898622;29;20048;-81
2021/05/21 10:34:59;;;;;;;1.38;1.20;;;;;;;20.05;42.94;99651.13;4944860;29;20083;-81
2021/05/21 10:37:28;;;;;;;5.10;1.20;;;;;;;20.48;42.65;99668.34;4887897;29;20059;-83
2021/05/21 10:40:13;;;;;;;2.13;1.38;;;;;;;20.33;41.16;99671.31;4903207;29;20036;-84
2021/05/21 10:42:47;;;;;;;3.05;1.30;;;;;;;20.50;40.39;99662.88;4933328;29;20067;-82
2021/05/21 10:45:19;;;;;;;3.35;1.48;;;;;;;20.78;41.86;99648.16;4917556;29;20066;-83
2021/05/21 10:47:50;;;;;;;2.00;1.45;;;;;;;21.04;40.61;99654.16;4900252;29;20631;-82
2021/05/21 10:50:19;;;;;;;15.05;2.10;;;;;;;21.18;40.19;99656.56;4926899;29;20078;-83
2021/05/21 10:53:03;;;;;;;1.30;0.90;;;;;;;21.31;40.00;99618.88;4900586;29;20048;-83
2021/05/21 10:56:00;;;;;;;3.72;1.10;;;;;;;21.13;39.34;99660.63;4930591;29;20131;-83
2021/05/21 10:58:47;;;;;;;3.17;1.42;;;;;;;21.12;38.05;99640.97;4902943;29;20079;-80
2021/05/21 11:01:32;;;;;;;3.65;1.20;;;;;;;21.15;36.74;99629.97;4915441;29;20044;-81
2021/05/21 11:04:07;;;;;;;3.05;1.02;;;;;;;21.17;36.43;99619.09;4912995;29;20217;-82
2021/05/21 11:06:40;;;;;;;5.22;1.30;;;;;;;20.99;36.84;99616.06;4919862;29;20048;-82
2021/05/21 11:09:22;;;;;;;2.67;1.00;;;;;;;21.40;37.96;99615.44;4921382;29;20040;-83
2021/05/21 11:11:53;;;;;;;3.00;1.00;;;;;;;21.64;36.14;99607.19;4921147;29;20040;-80
2021/05/21 11:14:29;;;;;;;4.13;1.13;;;;;;;21.34;37.53;99606.03;4920178;29;20090;-81
2021/05/21 11:17:15;;;;;;;2.50;1.00;;;;;;;20.94;37.05;99618.28;4948503;28;20056;-80
2021/05/21 11:19:58;;;;;;;3.70;1.38;;;;;;;20.77;37.93;99604.38;4953603;28;20048;-81
2021/05/21 11:22:35;;;;;;;4.97;1.00;;;;;;;21.07;38.68;99602.88;4931203;29;20047;-83
2021/05/21 11:25:22;;;;;;;2.33;1.00;;;;;;;21.20;36.91;99587.47;4920655;29;20139;-82
2021/05/21 11:27:57;;;;;;;4.43;1.30;;;;;;;21.29;36.35;99596.66;4890810;29;20051;-81
2021/05/21 11:30:35;;;;;;;3.30;0.90;;;;;;;21.55;36.84;99597.19;4938685;29;20055;-79
2021/05/21 11:33:09;;;;;;;;;;;;;;;21.64;35.82;99594.59;4921594;29;20040;-81
2021/05/21 11:35:39;;;;;;;1.88;1.00;;;;;;;21.63;34.61;99590.19;4913148;29;20448;-81
2021/05/21 11:38:06;;;;;;;3.35;1.10;;;;;;;21.88;36.17;99602.44;4906611;29;20051;-80
2021/05/21 11:40:33;;;;;;;4.25;1.10;;;;;;;21.79;37.27;99587.09;4902216;29;20063;-82
2021/05/21 11:42:59;;;;;;;3.65;1.23;;;;;;;22.07;35.29;99582.06;5007312;23;20047;-85